sensor_id;sensor_type;location;lat;lon;timestamp;temperature;humidity
2158;DHT22;41972;48.774;9.282;2023-03-01T00:02:01;-0.40;99.90
2158;DHT22;41972;48.774;9.282;2023-03-01T00:04:26;-0.40;99.90
2158;DHT22;41972;48.774;9.282;2023-03-01T00:06:53;-0.50;99.90
2158;DHT22;41972;48.774;9.282;2023-03-01T00:09:18;-0.50;99.90
2158;DHT22;41972;48.774;9.282;2023-03-01T00:11:44;-0.60;99.90
2158;DHT22;41972;48.774;9.282;2023-03-01T00:14:09;-0.60;99.90
2158;DHT22;41972;48.774;9.282;2023-03-01T00:16:38;-0.50;99.90
2158;DHT22;41972;48.774;9.282;2023-03-01T00:19:13;-0.50;99.90
2158;DHT22;41972;48.774;9.282;2023-03-01T00:21:40;-0.60;99.90
2158;DHT22;41972;48.774;9.282;2023-03-01T00:24:06;-0.60;99.90
2158;DHT22;41972;48.774;9.282;2023-03-01T00:26:32;-0.60;99.90
2158;DHT22;41972;48.774;9.282;2023-03-01T00:28:58;-0.60;99.90
2158;DHT22;41972;48.774;9.282;2023-03-01T00:31:26;-0.60;99.90
2158;DHT22;41972;48.774;9.282;2023-03-01T00:34:00;-0.80;99.90
2158;DHT22;41972;48.774;9.282;2023-03-01T00:36:27;-1.00;99.90
2158;DHT22;41972;48.774;9.282;2023-03-01T00:38:54;-1.40;99.90
2158;DHT22;41972;48.774;9.282;2023-03-01T00:41:20;-1.50;99.90
2158;DHT22;41972;48.774;9.282;2023-03-01T00:43:48;-1.60;99.90
2158;DHT22;41972;48.774;9.282;2023-03-01T00:46:20;-1.70;99.90
2158;DHT22;41972;48.774;9.282;2023-03-01T00:48:46;-1.70;99.90
2158;DHT22;41972;48.774;9.282;2023-03-01T00:53:39;-1.80;99.90
2158;DHT22;41972;48.774;9.282;2023-03-01T00:56:06;-2.00;99.90
2158;DHT22;41972;48.774;9.282;2023-03-01T00:58:34;-2.00;99.90
2158;DHT22;41972;48.774;9.282;2023-03-01T01:01:00;-1.80;99.90
2158;DHT22;41972;48.774;9.282;2023-03-01T01:03:25;-1.60;99.90
2158;DHT22;41972;48.774;9.282;2023-03-01T01:05:54;-1.50;99.90
2158;DHT22;41972;48.774;9.282;2023-03-01T01:08:20;-1.40;99.90
2158;DHT22;41972;48.774;9.282;2023-03-01T01:10:46;-1.20;99.90
2158;DHT22;41972;48.774;9.282;2023-03-01T01:13:12;-1.20;99.90
2158;DHT22;41972;48.774;9.282;2023-03-01T01:15:38;-1.20;99.90
2158;DHT22;41972;48.774;9.282;2023-03-01T01:18:04;-1.10;99.90
2158;DHT22;41972;48.774;9.282;2023-03-01T01:20:29;-1.10;99.90
2158;DHT22;41972;48.774;9.282;2023-03-01T01:22:55;-1.00;99.90
2158;DHT22;41972;48.774;9.282;2023-03-01T01:25:21;-1.00;99.90
2158;DHT22;41972;48.774;9.282;2023-03-01T01:27:46;-0.90;99.90
2158;DHT22;41972;48.774;9.282;2023-03-01T01:30:12;-0.90;99.90
2158;DHT22;41972;48.774;9.282;2023-03-01T01:32:38;-0.90;99.90
2158;DHT22;41972;48.774;9.282;2023-03-01T01:35:04;-0.90;99.90
2158;DHT22;41972;48.774;9.282;2023-03-01T01:37:30;-1.00;99.90
2158;DHT22;41972;48.774;9.282;2023-03-01T01:39:58;-0.90;99.90
2158;DHT22;41972;48.774;9.282;2023-03-01T01:42:25;-0.90;99.90
2158;DHT22;41972;48.774;9.282;2023-03-01T01:47:49;-0.80;99.90
2158;DHT22;41972;48.774;9.282;2023-03-01T01:50:17;-0.80;99.90
2158;DHT22;41972;48.774;9.282;2023-03-01T01:52:45;-0.80;99.90
2158;DHT22;41972;48.774;9.282;2023-03-01T01:55:20;-0.80;99.90
2158;DHT22;41972;48.774;9.282;2023-03-01T01:57:58;-0.80;99.90
2158;DHT22;41972;48.774;9.282;2023-03-01T02:00:28;-0.70;99.90
2158;DHT22;41972;48.774;9.282;2023-03-01T02:02:57;-0.60;99.90
2158;DHT22;41972;48.774;9.282;2023-03-01T02:05:33;-0.50;99.90
2158;DHT22;41972;48.774;9.282;2023-03-01T02:08:01;-0.50;99.90
2158;DHT22;41972;48.774;9.282;2023-03-01T02:10:28;-0.40;99.90
2158;DHT22;41972;48.774;9.282;2023-03-01T02:12:54;-0.40;99.90
2158;DHT22;41972;48.774;9.282;2023-03-01T02:15:22;-0.30;99.90
2158;DHT22;41972;48.774;9.282;2023-03-01T02:17:47;-0.40;99.90
2158;DHT22;41972;48.774;9.282;2023-03-01T02:22:57;-0.30;99.90
2158;DHT22;41972;48.774;9.282;2023-03-01T02:25:30;-0.30;99.90
2158;DHT22;41972;48.774;9.282;2023-03-01T02:30:24;-0.30;99.90
2158;DHT22;41972;48.774;9.282;2023-03-01T02:32:52;-0.30;99.90
2158;DHT22;41972;48.774;9.282;2023-03-01T02:35:19;-0.20;99.90
2158;DHT22;41972;48.774;9.282;2023-03-01T02:37:45;-0.20;99.90
2158;DHT22;41972;48.774;9.282;2023-03-01T02:40:13;-0.20;99.90
2158;DHT22;41972;48.774;9.282;2023-03-01T02:42:51;-0.10;99.90
2158;DHT22;41972;48.774;9.282;2023-03-01T02:45:17;-0.10;99.90
2158;DHT22;41972;48.774;9.282;2023-03-01T02:47:43;-0.20;99.90
2158;DHT22;41972;48.774;9.282;2023-03-01T02:55:26;-0.10;99.90
2158;DHT22;41972;48.774;9.282;2023-03-01T02:57:53;-0.20;99.90
2158;DHT22;41972;48.774;9.282;2023-03-01T03:00:24;-0.20;99.90
2158;DHT22;41972;48.774;9.282;2023-03-01T03:02:53;-0.20;99.90
2158;DHT22;41972;48.774;9.282;2023-03-01T03:05:31;-0.30;99.90
2158;DHT22;41972;48.774;9.282;2023-03-01T03:07:59;-0.20;99.90
2158;DHT22;41972;48.774;9.282;2023-03-01T03:10:28;-0.30;99.90
2158;DHT22;41972;48.774;9.282;2023-03-01T03:13:00;-0.20;99.90
2158;DHT22;41972;48.774;9.282;2023-03-01T03:15:28;-0.20;99.90
2158;DHT22;41972;48.774;9.282;2023-03-01T03:17:55;-0.30;99.90
2158;DHT22;41972;48.774;9.282;2023-03-01T03:20:23;-0.30;99.90
2158;DHT22;41972;48.774;9.282;2023-03-01T03:22:51;-0.20;99.90
2158;DHT22;41972;48.774;9.282;2023-03-01T03:25:18;-0.20;99.90
2158;DHT22;41972;48.774;9.282;2023-03-01T03:27:46;-0.20;99.90
2158;DHT22;41972;48.774;9.282;2023-03-01T03:30:14;-0.20;99.90
2158;DHT22;41972;48.774;9.282;2023-03-01T03:32:41;-0.20;99.90
2158;DHT22;41972;48.774;9.282;2023-03-01T03:35:09;-0.20;99.90
2158;DHT22;41972;48.774;9.282;2023-03-01T03:37:39;-0.10;99.90
2158;DHT22;41972;48.774;9.282;2023-03-01T03:40:25;-0.10;99.90
2158;DHT22;41972;48.774;9.282;2023-03-01T03:42:50;-0.10;99.90
2158;DHT22;41972;48.774;9.282;2023-03-01T03:45:16;-0.20;99.90
2158;DHT22;41972;48.774;9.282;2023-03-01T03:47:42;-0.10;99.90
2158;DHT22;41972;48.774;9.282;2023-03-01T03:50:10;-0.10;99.90
2158;DHT22;41972;48.774;9.282;2023-03-01T03:52:35;-0.10;99.90
2158;DHT22;41972;48.774;9.282;2023-03-01T03:55:01;-0.10;99.90
2158;DHT22;41972;48.774;9.282;2023-03-01T03:57:26;0.00;99.90
2158;DHT22;41972;48.774;9.282;2023-03-01T03:59:52;0.00;99.90
2158;DHT22;41972;48.774;9.282;2023-03-01T04:02:17;0.00;99.90
2158;DHT22;41972;48.774;9.282;2023-03-01T04:04:48;-0.10;99.90
2158;DHT22;41972;48.774;9.282;2023-03-01T04:07:15;0.00;99.90
2158;DHT22;41972;48.774;9.282;2023-03-01T04:09:41;-0.10;99.90
2158;DHT22;41972;48.774;9.282;2023-03-01T04:12:08;-0.10;99.90
2158;DHT22;41972;48.774;9.282;2023-03-01T04:14:33;-0.20;99.90
2158;DHT22;41972;48.774;9.282;2023-03-01T04:16:59;-0.20;99.90
2158;DHT22;41972;48.774;9.282;2023-03-01T04:19:24;-0.10;99.90
2158;DHT22;41972;48.774;9.282;2023-03-01T04:21:50;-0.10;99.90
2158;DHT22;41972;48.774;9.282;2023-03-01T04:24:15;-0.20;99.90
2158;DHT22;41972;48.774;9.282;2023-03-01T04:26:41;-0.20;99.90
2158;DHT22;41972;48.774;9.282;2023-03-01T04:29:07;0.00;99.90
2158;DHT22;41972;48.774;9.282;2023-03-01T04:31:32;0.00;99.90
2158;DHT22;41972;48.774;9.282;2023-03-01T04:33:59;0.00;99.90
2158;DHT22;41972;48.774;9.282;2023-03-01T04:36:28;-0.10;99.90
2158;DHT22;41972;48.774;9.282;2023-03-01T04:38:54;0.00;99.90
2158;DHT22;41972;48.774;9.282;2023-03-01T04:41:22;0.00;99.90
2158;DHT22;41972;48.774;9.282;2023-03-01T04:43:50;-0.10;99.90
2158;DHT22;41972;48.774;9.282;2023-03-01T04:46:18;0.00;99.90
2158;DHT22;41972;48.774;9.282;2023-03-01T04:48:44;0.00;99.90
2158;DHT22;41972;48.774;9.282;2023-03-01T04:51:11;0.00;99.90
2158;DHT22;41972;48.774;9.282;2023-03-01T04:53:39;0.00;99.90
2158;DHT22;41972;48.774;9.282;2023-03-01T04:56:05;0.00;99.90
2158;DHT22;41972;48.774;9.282;2023-03-01T04:58:31;0.00;99.90
2158;DHT22;41972;48.774;9.282;2023-03-01T05:00:57;0.00;99.90
2158;DHT22;41972;48.774;9.282;2023-03-01T05:03:22;-0.10;99.90
2158;DHT22;41972;48.774;9.282;2023-03-01T05:05:50;0.00;99.90
2158;DHT22;41972;48.774;9.282;2023-03-01T05:08:17;0.00;99.90
2158;DHT22;41972;48.774;9.282;2023-03-01T05:10:50;0.10;99.90
2158;DHT22;41972;48.774;9.282;2023-03-01T05:13:17;0.00;99.90
2158;DHT22;41972;48.774;9.282;2023-03-01T05:15:55;0.00;99.90
2158;DHT22;41972;48.774;9.282;2023-03-01T05:18:23;0.00;99.90
2158;DHT22;41972;48.774;9.282;2023-03-01T05:20:55;0.00;99.90
2158;DHT22;41972;48.774;9.282;2023-03-01T05:23:22;0.00;99.90
2158;DHT22;41972;48.774;9.282;2023-03-01T05:25:48;-0.10;99.90
2158;DHT22;41972;48.774;9.282;2023-03-01T05:28:15;-0.10;99.90
2158;DHT22;41972;48.774;9.282;2023-03-01T05:30:41;0.00;99.90
2158;DHT22;41972;48.774;9.282;2023-03-01T05:33:07;0.00;99.90
2158;DHT22;41972;48.774;9.282;2023-03-01T05:35:39;-0.10;99.90
2158;DHT22;41972;48.774;9.282;2023-03-01T05:38:06;0.00;99.90
2158;DHT22;41972;48.774;9.282;2023-03-01T05:40:33;0.10;99.90
2158;DHT22;41972;48.774;9.282;2023-03-01T05:42:59;0.00;99.90
2158;DHT22;41972;48.774;9.282;2023-03-01T05:45:26;0.00;99.90
2158;DHT22;41972;48.774;9.282;2023-03-01T05:47:52;0.00;99.90
2158;DHT22;41972;48.774;9.282;2023-03-01T05:50:20;-0.10;99.90
2158;DHT22;41972;48.774;9.282;2023-03-01T05:52:51;0.00;99.90
2158;DHT22;41972;48.774;9.282;2023-03-01T05:55:18;0.00;99.90
2158;DHT22;41972;48.774;9.282;2023-03-01T05:57:44;0.00;99.90
2158;DHT22;41972;48.774;9.282;2023-03-01T06:00:11;-0.10;99.90
2158;DHT22;41972;48.774;9.282;2023-03-01T06:02:37;0.00;99.90
2158;DHT22;41972;48.774;9.282;2023-03-01T06:05:04;0.00;99.90
2158;DHT22;41972;48.774;9.282;2023-03-01T06:07:30;0.10;99.90
2158;DHT22;41972;48.774;9.282;2023-03-01T06:09:58;0.00;99.90
2158;DHT22;41972;48.774;9.282;2023-03-01T06:12:23;0.10;99.90
2158;DHT22;41972;48.774;9.282;2023-03-01T06:14:49;0.20;99.90
2158;DHT22;41972;48.774;9.282;2023-03-01T06:17:14;0.00;99.90
2158;DHT22;41972;48.774;9.282;2023-03-01T06:19:40;0.10;99.90
2158;DHT22;41972;48.774;9.282;2023-03-01T06:22:06;0.00;99.90
2158;DHT22;41972;48.774;9.282;2023-03-01T06:24:31;0.10;99.90
2158;DHT22;41972;48.774;9.282;2023-03-01T06:26:58;0.00;99.90
2158;DHT22;41972;48.774;9.282;2023-03-01T06:29:24;0.20;99.90
2158;DHT22;41972;48.774;9.282;2023-03-01T06:31:49;0.20;99.90
2158;DHT22;41972;48.774;9.282;2023-03-01T06:34:15;0.10;99.90
2158;DHT22;41972;48.774;9.282;2023-03-01T06:36:40;0.10;99.90
2158;DHT22;41972;48.774;9.282;2023-03-01T06:39:06;0.30;99.90
2158;DHT22;41972;48.774;9.282;2023-03-01T06:41:32;0.30;99.90
2158;DHT22;41972;48.774;9.282;2023-03-01T06:43:59;0.30;99.90
2158;DHT22;41972;48.774;9.282;2023-03-01T06:46:24;0.10;99.90
2158;DHT22;41972;48.774;9.282;2023-03-01T06:48:50;0.10;99.90
2158;DHT22;41972;48.774;9.282;2023-03-01T06:51:16;0.10;99.90
2158;DHT22;41972;48.774;9.282;2023-03-01T06:53:41;0.10;99.90
2158;DHT22;41972;48.774;9.282;2023-03-01T06:56:07;0.00;99.90
2158;DHT22;41972;48.774;9.282;2023-03-01T06:58:32;0.00;99.90
2158;DHT22;41972;48.774;9.282;2023-03-01T07:00:58;-0.10;99.90
2158;DHT22;41972;48.774;9.282;2023-03-01T07:03:23;-0.10;99.90
2158;DHT22;41972;48.774;9.282;2023-03-01T07:05:50;-0.10;99.90
2158;DHT22;41972;48.774;9.282;2023-03-01T07:08:17;-0.10;99.90
2158;DHT22;41972;48.774;9.282;2023-03-01T07:10:43;-0.40;99.90
2158;DHT22;41972;48.774;9.282;2023-03-01T07:13:09;-0.20;99.90
2158;DHT22;41972;48.774;9.282;2023-03-01T07:15:34;-0.10;99.90
2158;DHT22;41972;48.774;9.282;2023-03-01T07:18:00;-0.10;99.90
2158;DHT22;41972;48.774;9.282;2023-03-01T07:20:25;-0.20;99.90
2158;DHT22;41972;48.774;9.282;2023-03-01T07:22:55;0.10;99.90
2158;DHT22;41972;48.774;9.282;2023-03-01T07:25:21;0.10;99.90
2158;DHT22;41972;48.774;9.282;2023-03-01T07:27:51;0.30;99.90
2158;DHT22;41972;48.774;9.282;2023-03-01T07:30:17;0.50;99.90
2158;DHT22;41972;48.774;9.282;2023-03-01T07:32:43;0.60;99.90
2158;DHT22;41972;48.774;9.282;2023-03-01T07:35:10;1.00;99.90
2158;DHT22;41972;48.774;9.282;2023-03-01T07:37:36;1.40;99.90
2158;DHT22;41972;48.774;9.282;2023-03-01T07:40:01;1.50;99.90
2158;DHT22;41972;48.774;9.282;2023-03-01T07:42:27;1.50;99.90
2158;DHT22;41972;48.774;9.282;2023-03-01T07:44:53;2.00;99.90
2158;DHT22;41972;48.774;9.282;2023-03-01T07:47:18;2.10;99.90
2158;DHT22;41972;48.774;9.282;2023-03-01T07:49:44;2.30;99.90
2158;DHT22;41972;48.774;9.282;2023-03-01T07:52:11;1.80;99.90
2158;DHT22;41972;48.774;9.282;2023-03-01T07:54:37;1.40;99.90
2158;DHT22;41972;48.774;9.282;2023-03-01T07:57:03;1.30;99.90
2158;DHT22;41972;48.774;9.282;2023-03-01T07:59:28;1.30;99.90
2158;DHT22;41972;48.774;9.282;2023-03-01T08:01:58;1.90;99.90
2158;DHT22;41972;48.774;9.282;2023-03-01T08:04:24;2.70;99.90
2158;DHT22;41972;48.774;9.282;2023-03-01T08:06:53;2.30;99.90
2158;DHT22;41972;48.774;9.282;2023-03-01T08:09:19;2.10;99.90
2158;DHT22;41972;48.774;9.282;2023-03-01T08:11:44;1.80;99.90
2158;DHT22;41972;48.774;9.282;2023-03-01T08:14:09;2.00;99.90
2158;DHT22;41972;48.774;9.282;2023-03-01T08:16:38;2.60;99.90
2158;DHT22;41972;48.774;9.282;2023-03-01T08:19:08;3.40;99.90
2158;DHT22;41972;48.774;9.282;2023-03-01T08:21:34;4.10;99.90
2158;DHT22;41972;48.774;9.282;2023-03-01T08:24:01;4.00;99.90
2158;DHT22;41972;48.774;9.282;2023-03-01T08:26:26;2.70;99.90
2158;DHT22;41972;48.774;9.282;2023-03-01T08:28:52;3.30;99.90
2158;DHT22;41972;48.774;9.282;2023-03-01T08:31:23;3.10;99.90
2158;DHT22;41972;48.774;9.282;2023-03-01T08:33:52;2.70;99.90
2158;DHT22;41972;48.774;9.282;2023-03-01T08:36:22;3.30;99.90
2158;DHT22;41972;48.774;9.282;2023-03-01T08:38:48;3.60;99.90
2158;DHT22;41972;48.774;9.282;2023-03-01T08:41:14;2.90;99.90
2158;DHT22;41972;48.774;9.282;2023-03-01T08:43:40;2.60;99.90
2158;DHT22;41972;48.774;9.282;2023-03-01T08:46:05;4.00;99.90
2158;DHT22;41972;48.774;9.282;2023-03-01T08:48:31;3.80;99.90
2158;DHT22;41972;48.774;9.282;2023-03-01T08:50:56;3.70;99.90
2158;DHT22;41972;48.774;9.282;2023-03-01T08:53:22;3.30;99.90
2158;DHT22;41972;48.774;9.282;2023-03-01T08:55:48;3.70;99.90
2158;DHT22;41972;48.774;9.282;2023-03-01T08:58:13;3.50;99.90
2158;DHT22;41972;48.774;9.282;2023-03-01T09:00:39;4.20;99.90
2158;DHT22;41972;48.774;9.282;2023-03-01T09:03:05;4.60;99.90
2158;DHT22;41972;48.774;9.282;2023-03-01T09:05:32;4.80;99.90
2158;DHT22;41972;48.774;9.282;2023-03-01T09:07:58;5.40;99.90
2158;DHT22;41972;48.774;9.282;2023-03-01T09:10:24;5.30;99.90
2158;DHT22;41972;48.774;9.282;2023-03-01T09:12:49;4.20;99.90
2158;DHT22;41972;48.774;9.282;2023-03-01T09:15:16;5.30;99.90
2158;DHT22;41972;48.774;9.282;2023-03-01T09:17:41;6.70;99.90
2158;DHT22;41972;48.774;9.282;2023-03-01T09:20:07;6.10;99.90
2158;DHT22;41972;48.774;9.282;2023-03-01T09:22:33;6.60;99.90
2158;DHT22;41972;48.774;9.282;2023-03-01T09:25:00;5.70;99.90
2158;DHT22;41972;48.774;9.282;2023-03-01T09:27:26;6.00;99.90
2158;DHT22;41972;48.774;9.282;2023-03-01T09:29:51;6.00;99.90
2158;DHT22;41972;48.774;9.282;2023-03-01T09:32:17;6.60;99.90
2158;DHT22;41972;48.774;9.282;2023-03-01T09:34:42;6.50;99.90
2158;DHT22;41972;48.774;9.282;2023-03-01T09:37:27;5.40;99.90
2158;DHT22;41972;48.774;9.282;2023-03-01T09:39:52;6.10;99.90
2158;DHT22;41972;48.774;9.282;2023-03-01T09:42:18;5.70;99.90
2158;DHT22;41972;48.774;9.282;2023-03-01T09:47:41;5.60;99.90
2158;DHT22;41972;48.774;9.282;2023-03-01T09:50:13;5.50;99.90
2158;DHT22;41972;48.774;9.282;2023-03-01T09:53:01;5.40;99.90
2158;DHT22;41972;48.774;9.282;2023-03-01T09:55:36;6.00;99.90
2158;DHT22;41972;48.774;9.282;2023-03-01T10:00:44;8.40;99.90
2158;DHT22;41972;48.774;9.282;2023-03-01T10:03:30;8.50;99.90
2158;DHT22;41972;48.774;9.282;2023-03-01T10:06:21;7.90;99.90
2158;DHT22;41972;48.774;9.282;2023-03-01T10:08:58;7.70;99.90
2158;DHT22;41972;48.774;9.282;2023-03-01T10:11:30;8.30;99.90
2158;DHT22;41972;48.774;9.282;2023-03-01T10:14:15;7.30;99.90
2158;DHT22;41972;48.774;9.282;2023-03-01T10:19:14;8.50;99.90
2158;DHT22;41972;48.774;9.282;2023-03-01T10:21:45;7.50;99.90
2158;DHT22;41972;48.774;9.282;2023-03-01T10:24:14;7.10;99.90
2158;DHT22;41972;48.774;9.282;2023-03-01T10:26:57;6.70;99.90
2158;DHT22;41972;48.774;9.282;2023-03-01T10:29:31;5.50;99.90
2158;DHT22;41972;48.774;9.282;2023-03-01T10:32:00;6.20;99.90
2158;DHT22;41972;48.774;9.282;2023-03-01T10:34:31;5.60;99.90
2158;DHT22;41972;48.774;9.282;2023-03-01T10:37:23;5.50;99.90
2158;DHT22;41972;48.774;9.282;2023-03-01T10:40:03;6.60;99.90
2158;DHT22;41972;48.774;9.282;2023-03-01T10:42:47;6.60;99.90
2158;DHT22;41972;48.774;9.282;2023-03-01T10:47:41;7.40;99.90
2158;DHT22;41972;48.774;9.282;2023-03-01T10:50:20;8.30;99.90
2158;DHT22;41972;48.774;9.282;2023-03-01T10:53:00;8.10;99.90
2158;DHT22;41972;48.774;9.282;2023-03-01T10:55:36;9.10;99.90
2158;DHT22;41972;48.774;9.282;2023-03-01T11:03:31;6.50;99.90
2158;DHT22;41972;48.774;9.282;2023-03-01T11:11:13;6.80;99.90
2158;DHT22;41972;48.774;9.282;2023-03-01T11:13:55;7.00;99.90
2158;DHT22;41972;48.774;9.282;2023-03-01T11:16:27;6.40;99.90
2158;DHT22;41972;48.774;9.282;2023-03-01T11:21:38;7.30;99.90
2158;DHT22;41972;48.774;9.282;2023-03-01T11:24:10;8.30;99.90
2158;DHT22;41972;48.774;9.282;2023-03-01T11:26:44;7.30;99.90
2158;DHT22;41972;48.774;9.282;2023-03-01T11:29:43;7.10;99.90
2158;DHT22;41972;48.774;9.282;2023-03-01T11:32:13;6.50;99.90
2158;DHT22;41972;48.774;9.282;2023-03-01T11:37:15;5.80;99.90
2158;DHT22;41972;48.774;9.282;2023-03-01T11:39:51;5.90;99.90
2158;DHT22;41972;48.774;9.282;2023-03-01T11:45:08;5.60;99.90
2158;DHT22;41972;48.774;9.282;2023-03-01T11:50:07;5.70;99.90
2158;DHT22;41972;48.774;9.282;2023-03-01T12:08:23;6.10;99.90
2158;DHT22;41972;48.774;9.282;2023-03-01T12:11:02;6.20;99.90
2158;DHT22;41972;48.774;9.282;2023-03-01T12:13:59;6.30;99.90
2158;DHT22;41972;48.774;9.282;2023-03-01T12:16:56;6.00;99.90
2158;DHT22;41972;48.774;9.282;2023-03-01T12:33:17;6.40;99.90
2158;DHT22;41972;48.774;9.282;2023-03-01T12:36:07;6.30;99.90
2158;DHT22;41972;48.774;9.282;2023-03-01T12:39:42;6.20;99.90
2158;DHT22;41972;48.774;9.282;2023-03-01T12:41:46;6.00;99.90
2158;DHT22;41972;48.774;9.282;2023-03-01T12:44:28;6.10;99.90
2158;DHT22;41972;48.774;9.282;2023-03-01T12:47:18;6.10;99.90
2158;DHT22;41972;48.774;9.282;2023-03-01T12:49:50;6.50;99.90
2158;DHT22;41972;48.774;9.282;2023-03-01T12:52:38;6.30;99.90
2158;DHT22;41972;48.774;9.282;2023-03-01T12:55:17;6.30;99.90
2158;DHT22;41972;48.774;9.282;2023-03-01T13:03:28;6.80;99.90
2158;DHT22;41972;48.774;9.282;2023-03-01T13:06:07;6.80;99.90
2158;DHT22;41972;48.774;9.282;2023-03-01T13:08:41;6.70;99.90
2158;DHT22;41972;48.774;9.282;2023-03-01T13:11:19;6.90;99.90
2158;DHT22;41972;48.774;9.282;2023-03-01T13:13:46;6.80;99.90
2158;DHT22;41972;48.774;9.282;2023-03-01T13:21:43;6.80;99.90
2158;DHT22;41972;48.774;9.282;2023-03-01T13:32:23;6.90;99.90
2158;DHT22;41972;48.774;9.282;2023-03-01T13:34:57;6.90;99.90
2158;DHT22;41972;48.774;9.282;2023-03-01T13:37:28;6.90;99.90
2158;DHT22;41972;48.774;9.282;2023-03-01T13:39:57;6.90;99.90
2158;DHT22;41972;48.774;9.282;2023-03-01T13:42:43;7.00;99.90
2158;DHT22;41972;48.774;9.282;2023-03-01T13:45:33;7.00;99.90
2158;DHT22;41972;48.774;9.282;2023-03-01T13:48:03;7.20;99.90
2158;DHT22;41972;48.774;9.282;2023-03-01T13:50:38;7.20;99.90
2158;DHT22;41972;48.774;9.282;2023-03-01T13:53:14;7.20;99.90
2158;DHT22;41972;48.774;9.282;2023-03-01T13:55:44;7.20;99.90
2158;DHT22;41972;48.774;9.282;2023-03-01T13:58:22;7.30;99.90
2158;DHT22;41972;48.774;9.282;2023-03-01T14:01:04;7.20;99.90
2158;DHT22;41972;48.774;9.282;2023-03-01T14:03:33;7.40;99.90
2158;DHT22;41972;48.774;9.282;2023-03-01T14:06:07;7.30;99.90
2158;DHT22;41972;48.774;9.282;2023-03-01T14:08:35;7.00;99.90
2158;DHT22;41972;48.774;9.282;2023-03-01T14:11:26;6.90;99.90
2158;DHT22;41972;48.774;9.282;2023-03-01T14:17:22;6.90;99.90
2158;DHT22;41972;48.774;9.282;2023-03-01T14:19:55;6.90;99.90
2158;DHT22;41972;48.774;9.282;2023-03-01T14:24:56;7.00;99.90
2158;DHT22;41972;48.774;9.282;2023-03-01T14:27:25;7.20;99.90
2158;DHT22;41972;48.774;9.282;2023-03-01T14:29:56;7.30;99.90
2158;DHT22;41972;48.774;9.282;2023-03-01T14:32:25;7.10;99.90
2158;DHT22;41972;48.774;9.282;2023-03-01T14:34:51;7.20;99.90
2158;DHT22;41972;48.774;9.282;2023-03-01T14:37:27;6.90;99.90
2158;DHT22;41972;48.774;9.282;2023-03-01T14:39:54;7.10;99.90
2158;DHT22;41972;48.774;9.282;2023-03-01T14:42:22;7.20;99.90
2158;DHT22;41972;48.774;9.282;2023-03-01T14:44:50;7.20;99.90
2158;DHT22;41972;48.774;9.282;2023-03-01T14:47:35;7.20;99.90
2158;DHT22;41972;48.774;9.282;2023-03-01T14:52:35;7.00;99.90
2158;DHT22;41972;48.774;9.282;2023-03-01T14:55:05;7.00;99.90
2158;DHT22;41972;48.774;9.282;2023-03-01T14:57:31;7.20;99.90
2158;DHT22;41972;48.774;9.282;2023-03-01T15:00:03;7.20;99.90
2158;DHT22;41972;48.774;9.282;2023-03-01T15:02:33;7.30;99.90
2158;DHT22;41972;48.774;9.282;2023-03-01T15:05:02;7.30;99.90
2158;DHT22;41972;48.774;9.282;2023-03-01T15:07:34;7.30;99.90
2158;DHT22;41972;48.774;9.282;2023-03-01T15:10:02;7.20;99.90
2158;DHT22;41972;48.774;9.282;2023-03-01T15:14:57;7.10;99.90
2158;DHT22;41972;48.774;9.282;2023-03-01T15:17:36;7.00;99.90
2158;DHT22;41972;48.774;9.282;2023-03-01T15:20:06;7.10;99.90
2158;DHT22;41972;48.774;9.282;2023-03-01T15:22:32;7.10;99.90
2158;DHT22;41972;48.774;9.282;2023-03-01T15:24:58;7.20;99.90
2158;DHT22;41972;48.774;9.282;2023-03-01T15:27:25;7.10;99.90
2158;DHT22;41972;48.774;9.282;2023-03-01T15:29:59;7.10;99.90
2158;DHT22;41972;48.774;9.282;2023-03-01T15:32:36;7.20;99.90
2158;DHT22;41972;48.774;9.282;2023-03-01T15:37:59;7.10;99.90
2158;DHT22;41972;48.774;9.282;2023-03-01T15:40:29;7.00;99.90
2158;DHT22;41972;48.774;9.282;2023-03-01T15:43:02;7.00;99.90
2158;DHT22;41972;48.774;9.282;2023-03-01T15:45:30;7.00;99.90
2158;DHT22;41972;48.774;9.282;2023-03-01T15:47:57;7.00;99.90
2158;DHT22;41972;48.774;9.282;2023-03-01T15:52:52;7.00;99.90
2158;DHT22;41972;48.774;9.282;2023-03-01T15:55:23;6.90;99.90
2158;DHT22;41972;48.774;9.282;2023-03-01T15:57:50;6.90;99.90
2158;DHT22;41972;48.774;9.282;2023-03-01T16:00:22;6.80;99.90
2158;DHT22;41972;48.774;9.282;2023-03-01T16:02:48;6.80;99.90
2158;DHT22;41972;48.774;9.282;2023-03-01T16:05:24;6.80;99.90
2158;DHT22;41972;48.774;9.282;2023-03-01T16:07:50;6.70;99.90
2158;DHT22;41972;48.774;9.282;2023-03-01T16:10:16;6.70;99.90
2158;DHT22;41972;48.774;9.282;2023-03-01T16:12:42;6.60;99.90
2158;DHT22;41972;48.774;9.282;2023-03-01T16:15:18;6.50;99.90
2158;DHT22;41972;48.774;9.282;2023-03-01T16:17:45;6.50;99.90
2158;DHT22;41972;48.774;9.282;2023-03-01T16:20:11;6.50;99.90
2158;DHT22;41972;48.774;9.282;2023-03-01T16:22:37;6.50;99.90
2158;DHT22;41972;48.774;9.282;2023-03-01T16:25:03;6.40;99.90
2158;DHT22;41972;48.774;9.282;2023-03-01T16:27:29;6.40;99.90
2158;DHT22;41972;48.774;9.282;2023-03-01T16:29:54;6.40;99.90
2158;DHT22;41972;48.774;9.282;2023-03-01T16:32:21;6.30;99.90
2158;DHT22;41972;48.774;9.282;2023-03-01T16:34:47;6.30;99.90
2158;DHT22;41972;48.774;9.282;2023-03-01T16:37:14;6.30;99.90
2158;DHT22;41972;48.774;9.282;2023-03-01T16:39:40;6.20;99.90
2158;DHT22;41972;48.774;9.282;2023-03-01T16:42:05;6.10;99.90
2158;DHT22;41972;48.774;9.282;2023-03-01T16:44:31;6.10;99.90
2158;DHT22;41972;48.774;9.282;2023-03-01T16:46:57;6.00;99.90
2158;DHT22;41972;48.774;9.282;2023-03-01T16:49:22;6.00;99.90
2158;DHT22;41972;48.774;9.282;2023-03-01T16:51:48;6.00;99.90
2158;DHT22;41972;48.774;9.282;2023-03-01T16:54:13;5.80;99.90
2158;DHT22;41972;48.774;9.282;2023-03-01T16:56:39;5.80;99.90
2158;DHT22;41972;48.774;9.282;2023-03-01T16:59:05;5.80;99.90
2158;DHT22;41972;48.774;9.282;2023-03-01T17:01:31;5.80;99.90
2158;DHT22;41972;48.774;9.282;2023-03-01T17:04:06;5.70;99.90
2158;DHT22;41972;48.774;9.282;2023-03-01T17:06:32;5.60;99.90
2158;DHT22;41972;48.774;9.282;2023-03-01T17:08:58;5.30;99.90
2158;DHT22;41972;48.774;9.282;2023-03-01T17:11:24;5.20;99.90
2158;DHT22;41972;48.774;9.282;2023-03-01T17:13:50;5.00;99.90
2158;DHT22;41972;48.774;9.282;2023-03-01T17:16:17;4.80;99.90
2158;DHT22;41972;48.774;9.282;2023-03-01T17:18:44;4.80;99.90
2158;DHT22;41972;48.774;9.282;2023-03-01T17:21:10;4.80;99.90
2158;DHT22;41972;48.774;9.282;2023-03-01T17:23:38;4.90;99.90
2158;DHT22;41972;48.774;9.282;2023-03-01T17:26:04;4.80;99.90
2158;DHT22;41972;48.774;9.282;2023-03-01T17:28:31;4.60;99.90
2158;DHT22;41972;48.774;9.282;2023-03-01T17:30:59;4.50;99.90
2158;DHT22;41972;48.774;9.282;2023-03-01T17:33:25;4.70;99.90
2158;DHT22;41972;48.774;9.282;2023-03-01T17:35:50;4.60;99.90
2158;DHT22;41972;48.774;9.282;2023-03-01T17:38:17;4.40;99.90
2158;DHT22;41972;48.774;9.282;2023-03-01T17:40:43;4.10;99.90
2158;DHT22;41972;48.774;9.282;2023-03-01T17:43:13;4.10;99.90
2158;DHT22;41972;48.774;9.282;2023-03-01T17:45:39;3.60;99.90
2158;DHT22;41972;48.774;9.282;2023-03-01T17:48:06;3.40;99.90
2158;DHT22;41972;48.774;9.282;2023-03-01T17:50:32;3.40;99.90
2158;DHT22;41972;48.774;9.282;2023-03-01T17:52:58;3.20;99.90
2158;DHT22;41972;48.774;9.282;2023-03-01T17:55:24;3.10;99.90
2158;DHT22;41972;48.774;9.282;2023-03-01T17:57:49;3.00;99.90
2158;DHT22;41972;48.774;9.282;2023-03-01T18:00:16;3.00;99.90
2158;DHT22;41972;48.774;9.282;2023-03-01T18:02:42;2.90;99.90